Time;durP1;ratioP1;P1;durP2;ratioP2;P2;SDS_P1;SDS_P2;PMS_P1;PMS_P2;Temp;Humidity;BMP_temperature;BMP_pressure;BME280_temperature;BME280_humidity;BME280_pressure;Samples;Min_cycle;Max_cycle;Signal;HPM_P1;HPM_P2
2022/10/08 00:01:27;;;;;;;;;14.00;11.33;;;;;14.68;100.00;101813.44;5081743;27;45309;-67
2022/10/08 00:03:53;;;;;;;;;10.00;10.00;;;;;14.65;100.00;101829.31;5063130;27;45489;-67
2022/10/08 00:06:21;;;;;;;;;12.00;11.00;;;;;14.64;100.00;101819.38;5079912;27;46482;-67
2022/10/08 00:08:52;;;;;;;;;12.00;9.33;;;;;14.65;100.00;101829.31;5078138;28;45353;-67
2022/10/08 00:11:21;;;;;;;;;15.00;8.67;;;;;14.57;100.00;101826.47;5076605;27;45309;-68
2022/10/08 00:13:49;;;;;;;;;8.33;8.33;;;;;14.60;100.00;101826.19;5061524;27;45562;-67
2022/10/08 00:16:28;;;;;;;;;9.00;8.00;;;;;14.59;100.00;101825.31;5075996;27;45906;-68
2022/10/08 00:18:57;;;;;;;;;10.33;8.33;;;;;14.50;100.00;101811.66;5067632;27;45350;-67
2022/10/08 00:21:30;;;;;;;;;10.33;8.67;;;;;14.49;100.00;101835.41;5082675;27;45390;-68
2022/10/08 00:23:56;;;;;;;;;6.00;6.00;;;;;14.45;100.00;101830.38;5059594;28;45369;-67
2022/10/08 00:26:24;;;;;;;;;9.33;6.00;;;;;14.38;100.00;101822.78;5073439;27;45248;-68
2022/10/08 00:28:51;;;;;;;;;6.00;6.00;;;;;14.37;100.00;101828.34;5059005;28;45464;-68
2022/10/08 00:31:20;;;;;;;;;7.00;5.33;;;;;14.39;100.00;101831.84;5072362;27;45270;-68
2022/10/08 00:33:54;;;;;;;;;7.00;7.00;;;;;14.37;100.00;101831.09;5059678;27;45282;-68
2022/10/08 00:36:20;;;;;;;;;8.00;6.67;;;;;14.34;100.00;101826.75;5074885;27;45843;-68
2022/10/08 00:38:46;;;;;;;;;7.00;4.67;;;;;14.36;100.00;101829.34;5059743;27;45460;-68
2022/10/08 00:41:21;;;;;;;;;8.67;6.67;;;;;14.33;100.00;101832.38;5073135;27;45309;-69
2022/10/08 00:43:55;;;;;;;;;4.33;4.33;;;;;14.39;100.00;101840.88;5060843;27;45423;-69
2022/10/08 00:46:36;;;;;;;;;7.00;5.67;;;;;14.35;100.00;101828.50;5094242;27;46303;-67
2022/10/08 00:49:04;;;;;;;;;6.00;4.00;;;;;14.36;100.00;101829.34;5086676;27;45374;-69
2022/10/08 00:51:32;;;;;;;;;6.00;4.33;;;;;14.37;100.00;101839.28;5102673;27;45500;-67
2022/10/08 00:54:00;;;;;;;;;5.00;5.00;;;;;14.30;100.00;101839.00;5099688;27;45553;-68
2022/10/08 00:56:26;;;;;;;;;5.67;5.00;;;;;14.31;100.00;101837.16;5095558;27;46438;-69
2022/10/08 00:58:52;;;;;;;;;5.67;4.33;;;;;14.31;100.00;101827.06;5070176;28;45278;-69
2022/10/08 01:01:17;;;;;;;;;6.00;5.00;;;;;14.32;100.00;101834.25;5084394;27;45396;-67
2022/10/08 01:03:42;;;;;;;;;10.00;5.67;;;;;14.26;100.00;101828.50;5070675;28;45417;-67
2022/10/08 01:06:16;;;;;;;;;3.00;3.00;;;;;14.27;100.00;101835.69;5083270;27;46423;-67
2022/10/08 01:08:58;;;;;;;;;6.67;4.00;;;;;14.21;100.00;101845.34;5065110;28;45328;-69
2022/10/08 01:11:42;;;;;;;;;6.67;5.00;;;;;14.17;100.00;101841.16;5082504;27;45442;-69
2022/10/08 01:14:30;;;;;;;;;4.00;4.00;;;;;14.23;100.00;101834.28;5074532;27;45482;-68
2022/10/08 01:17:05;;;;;;;;;3.00;3.00;;;;;14.24;100.00;101838.75;5084256;27;45629;-67
2022/10/08 01:20:09;;;;;;;;;3.67;3.67;;;;;14.22;100.00;101829.81;5069357;27;45479;-68
2022/10/08 01:22:37;;;;;;;;;5.00;5.00;;;;;14.23;100.00;101831.53;5066486;28;45373;-68
2022/10/08 01:25:40;;;;;;;;;5.33;4.00;;;;;14.25;100.00;101833.09;5070820;27;45401;-69
2022/10/08 01:28:31;;;;;;;;;4.33;3.33;;;;;14.23;100.00;101828.81;5066314;27;45251;-67
2022/10/08 01:31:12;;;;;;;;;4.00;4.00;;;;;14.23;100.00;101834.28;5079941;27;45418;-69
2022/10/08 01:33:51;;;;;;;;;8.00;5.33;;;;;14.20;100.00;101829.94;5064847;28;45403;-67
2022/10/08 01:36:20;;;;;;;;;4.33;4.33;;;;;14.14;100.00;101826.94;5082358;27;45451;-67
2022/10/08 01:38:57;;;;;;;;;7.33;5.67;;;;;14.15;100.00;101828.66;5080130;28;47053;-68
2022/10/08 01:41:25;;;;;;;;;7.00;4.00;;;;;14.16;100.00;101827.66;5080321;27;45356;-67
2022/10/08 01:44:11;;;;;;;;;6.00;4.67;;;;;14.14;100.00;101826.94;5068994;27;45322;-67
2022/10/08 01:46:39;;;;;;;;;6.33;5.00;;;;;14.15;100.00;101817.75;5084763;27;45398;-67
2022/10/08 01:49:11;;;;;;;;;4.00;2.00;;;;;14.20;100.00;101818.16;5068726;28;46637;-68
2022/10/08 01:51:48;;;;;;;;;4.33;4.33;;;;;14.16;100.00;101814.00;5082299;27;45371;-67
2022/10/08 01:54:16;;;;;;;;;5.67;3.33;;;;;14.10;100.00;101811.84;5065276;27;45375;-68
2022/10/08 01:56:44;;;;;;;;;5.00;4.67;;;;;14.07;100.00;101821.19;5082978;27;45683;-69
2022/10/08 01:59:25;;;;;;;;;6.67;5.33;;;;;13.98;100.00;101824.78;5066708;27;47566;-68
2022/10/08 02:01:50;;;;;;;;;4.33;3.67;;;;;14.02;100.00;101820.78;5080970;28;45238;-69
2022/10/08 02:04:32;;;;;;;;;5.00;5.00;;;;;13.99;100.00;101815.59;5068705;27;45341;-69
2022/10/08 02:07:01;;;;;;;;;4.67;4.00;;;;;14.01;100.00;101819.91;5081202;27;45445;-68
2022/10/08 02:09:31;;;;;;;;;4.00;2.00;;;;;13.99;100.00;101819.19;5066483;27;46385;-70
2022/10/08 02:11:56;;;;;;;;;4.00;4.00;;;;;14.03;100.00;101806.94;5079914;27;45251;-69
2022/10/08 02:14:25;;;;;;;;;6.00;3.33;;;;;14.09;100.00;101810.13;5067428;27;45306;-69
2022/10/08 02:17:17;;;;;;;;;5.33;5.00;;;;;14.18;100.00;101822.88;5082640;27;45478;-68
2022/10/08 02:19:52;;;;;;;;;9.00;5.00;;;;;14.28;100.00;101815.56;5070542;27;46221;-68
2022/10/08 02:22:21;;;;;;;;;5.00;3.33;;;;;14.29;100.00;101809.09;5073434;28;45475;-69
2022/10/08 02:25:03;;;;;;;;;5.00;3.00;;;;;14.39;100.00;101815.44;5068349;27;45374;-68
2022/10/08 02:27:40;;;;;;;;;4.67;3.67;;;;;14.35;100.00;101808.50;5091751;27;45541;-68
2022/10/08 02:30:10;;;;;;;;;4.00;4.00;;;;;14.30;100.00;101817.13;5072187;27;45683;-68
2022/10/08 02:32:49;;;;;;;;;5.00;5.00;;;;;14.23;100.00;101812.41;5075483;28;45395;-68
2022/10/08 02:35:28;;;;;;;;;5.00;5.00;;;;;14.24;100.00;101811.41;5074810;27;45254;-68
2022/10/08 02:38:18;;;;;;;;;4.00;4.00;;;;;14.20;100.00;101813.53;5074957;27;45266;-68
2022/10/08 02:40:49;;;;;;;;;4.00;3.67;;;;;14.23;100.00;101815.13;5074595;27;46205;-68
2022/10/08 02:43:23;;;;;;;;;4.00;4.00;;;;;14.21;100.00;101808.94;5069720;27;45455;-68
2022/10/08 02:46:06;;;;;;;;;4.33;4.33;;;;;14.23;100.00;101812.41;5071383;27;45258;-68
2022/10/08 02:48:35;;;;;;;;;4.00;4.00;;;;;14.18;100.00;101810.09;5066275;28;45325;-68
2022/10/08 02:51:06;;;;;;;;;3.00;3.00;;;;;14.22;100.00;101816.16;5085489;27;46310;-68
2022/10/08 02:53:35;;;;;;;;;7.33;5.67;;;;;14.11;100.00;101814.41;5069124;28;45515;-68
2022/10/08 02:56:09;;;;;;;;;3.67;3.67;;;;;14.13;100.00;101822.47;5076479;27;44892;-68
2022/10/08 02:58:35;;;;;;;;;5.00;4.00;;;;;14.18;100.00;101810.09;5067801;28;45354;-68
2022/10/08 03:01:06;;;;;;;;;6.33;3.00;;;;;14.17;100.00;101813.00;5076785;27;45374;-68
2022/10/08 03:03:36;;;;;;;;;5.67;5.67;;;;;14.15;100.00;101812.28;5067986;28;45258;-67
2022/10/08 03:06:05;;;;;;;;;6.67;5.33;;;;;14.10;100.00;101806.38;5076960;27;47723;-68
2022/10/08 03:08:33;;;;;;;;;4.67;4.00;;;;;14.09;100.00;101812.84;5067480;28;45333;-68
2022/10/08 03:10:59;;;;;;;;;5.67;5.33;;;;;14.07;100.00;101812.13;5075963;27;46198;-68
2022/10/08 03:13:26;;;;;;;;;5.00;4.00;;;;;14.04;100.00;101813.28;5065692;28;45230;-68
2022/10/08 03:15:52;;;;;;;;;5.00;4.00;;;;;14.02;100.00;101821.63;5073555;27;45339;-68
2022/10/08 03:18:21;;;;;;;;;5.00;5.00;;;;;14.00;100.00;101817.31;5063436;28;45347;-68
2022/10/08 03:20:51;;;;;;;;;7.00;4.00;;;;;14.03;100.00;101823.34;5072188;27;47654;-68
2022/10/08 03:23:17;;;;;;;;;4.00;4.00;;;;;14.00;100.00;101829.09;5069341;27;45452;-68
2022/10/08 03:25:43;;;;;;;;;5.67;4.00;;;;;13.99;100.00;101824.66;5086416;27;45550;-68
2022/10/08 03:28:09;;;;;;;;;7.67;3.33;;;;;13.96;100.00;101822.19;5082469;27;46292;-68
2022/10/08 03:30:34;;;;;;;;;3.67;3.33;;;;;13.95;100.00;101822.34;5077279;27;46021;-68
2022/10/08 03:33:00;;;;;;;;;6.00;4.00;;;;;13.93;100.00;101825.22;5083989;27;45326;-68
2022/10/08 03:35:25;;;;;;;;;7.67;3.00;;;;;13.82;100.00;101825.34;5075814;27;45506;-67
2022/10/08 03:37:52;;;;;;;;;4.33;4.33;;;;;13.81;100.00;101839.16;5074679;27;45606;-67
2022/10/08 03:40:18;;;;;;;;;4.67;3.67;;;;;13.83;100.00;101832.53;5069531;27;46312;-67
2022/10/08 03:42:43;;;;;;;;;3.00;3.00;;;;;13.85;100.00;101838.75;5067554;28;45311;-67
2022/10/08 03:45:09;;;;;;;;;5.00;3.00;;;;;13.82;100.00;101840.88;5070272;27;45314;-67
2022/10/08 03:47:34;;;;;;;;;3.33;3.33;;;;;13.84;100.00;101834.28;5069198;28;45372;-68
2022/10/08 03:49:59;;;;;;;;;4.67;4.00;;;;;13.82;100.00;101841.75;5072167;27;46348;-68
2022/10/08 03:52:25;;;;;;;;;2.00;2.00;;;;;13.83;100.00;101840.75;5071715;28;45474;-68
2022/10/08 03:54:50;;;;;;;;;4.00;4.00;;;;;13.86;100.00;101837.75;5071269;27;45444;-68
2022/10/08 03:57:15;;;;;;;;;5.00;5.00;;;;;13.87;100.00;101844.94;5071044;27;45420;-68
2022/10/08 03:59:41;;;;;;;;;5.67;4.67;;;;;13.88;100.00;101857.56;5068579;27;45834;-68
2022/10/08 04:02:06;;;;;;;;;5.00;3.67;;;;;13.85;100.00;101849.66;5074612;27;45511;-67
2022/10/08 04:04:31;;;;;;;;;6.33;4.67;;;;;13.75;100.00;101861.56;5067027;27;45339;-68
2022/10/08 04:06:57;;;;;;;;;5.00;5.00;;;;;13.71;100.00;101866.47;5075138;27;45559;-68
2022/10/08 04:09:22;;;;;;;;;7.67;5.33;;;;;13.72;100.00;101878.25;5070224;27;46643;-68
2022/10/08 04:11:47;;;;;;;;;5.00;4.00;;;;;13.71;100.00;101880.13;5075681;27;45296;-68
2022/10/08 04:14:13;;;;;;;;;6.00;4.33;;;;;13.77;100.00;101876.81;5063181;27;45363;-68
2022/10/08 04:16:38;;;;;;;;;6.00;5.00;;;;;13.70;100.00;101881.13;5076348;27;45439;-68
2022/10/08 04:19:03;;;;;;;;;10.00;7.00;;;;;13.69;100.00;101879.41;5062429;28;46436;-68
2022/10/08 04:21:30;;;;;;;;;5.33;4.67;;;;;13.72;100.00;101891.91;5077488;27;45372;-68
2022/10/08 04:23:56;;;;;;;;;5.00;5.00;;;;;13.76;100.00;101891.47;5062487;28;45513;-67
2022/10/08 04:26:21;;;;;;;;;5.00;5.00;;;;;13.74;100.00;101887.16;5086224;27;45308;-68
2022/10/08 04:28:47;;;;;;;;;5.33;5.00;;;;;13.78;100.00;101897.69;5074433;28;46406;-68
2022/10/08 04:31:22;;;;;;;;;9.33;8.00;;;;;13.82;100.00;101901.84;5085071;27;45377;-68
2022/10/08 04:33:48;;;;;;;;;8.67;7.33;;;;;13.81;100.00;101900.09;5066073;28;45318;-68
2022/10/08 04:36:22;;;;;;;;;6.00;6.00;;;;;13.86;100.00;101903.31;5088754;27;45350;-68
2022/10/08 04:38:48;;;;;;;;;8.67;6.00;;;;;13.83;100.00;101906.31;5068249;28;45698;-68
2022/10/08 04:41:16;;;;;;;;;7.00;6.00;;;;;13.83;100.00;101903.56;5075988;27;45364;-68
2022/10/08 04:43:43;;;;;;;;;4.67;4.67;;;;;13.79;100.00;101907.59;5065526;28;45467;-68
2022/10/08 04:46:11;;;;;;;;;6.33;4.00;;;;;13.86;100.00;101906.03;5076662;27;45725;-68
2022/10/08 04:48:37;;;;;;;;;5.00;4.00;;;;;13.82;100.00;101901.84;5067507;28;45327;-68
2022/10/08 04:51:05;;;;;;;;;4.00;4.00;;;;;13.81;100.00;101891.91;5083408;27;45313;-68
2022/10/08 04:53:31;;;;;;;;;4.67;4.00;;;;;13.79;100.00;101895.81;5079034;28;45362;-68
2022/10/08 04:55:56;;;;;;;;;6.00;6.00;;;;;13.77;100.00;101906.88;5080394;27;45467;-68
2022/10/08 04:58:24;;;;;;;;;6.67;5.00;;;;;13.74;100.00;101898.94;5073622;28;46701;-68
2022/10/08 05:00:50;;;;;;;;;5.00;4.00;;;;;13.70;100.00;101902.13;5076198;27;45399;-68
2022/10/08 05:03:15;;;;;;;;;6.00;4.00;;;;;13.67;100.00;101907.84;5069511;28;45345;-68
2022/10/08 05:05:43;;;;;;;;;3.00;3.00;;;;;13.66;100.00;101914.34;5086118;27;45407;-68
2022/10/08 05:08:08;;;;;;;;;6.67;4.00;;;;;13.69;100.00;101914.91;5080573;28;48251;-68
2022/10/08 05:10:34;;;;;;;;;6.00;4.00;;;;;13.72;100.00;101919.22;5083859;27;45267;-68
2022/10/08 05:13:00;;;;;;;;;5.33;5.00;;;;;13.74;100.00;101918.06;5074632;28;45311;-68
2022/10/08 05:15:26;;;;;;;;;4.00;4.00;;;;;13.79;100.00;101921.25;5083422;27;45440;-68
2022/10/08 05:17:51;;;;;;;;;4.00;4.00;;;;;13.83;100.00;101922.69;5067880;27;45302;-68
2022/10/08 05:20:17;;;;;;;;;3.67;3.33;;;;;13.79;100.00;101914.94;5079130;27;45479;-68
2022/10/08 05:22:42;;;;;;;;;4.67;4.00;;;;;13.79;100.00;101924.00;5073440;27;45340;-68
2022/10/08 05:25:08;;;;;;;;;2.33;2.00;;;;;13.74;100.00;101915.34;5074361;27;45280;-68
2022/10/08 05:27:33;;;;;;;;;4.00;4.00;;;;;13.75;100.00;101922.53;5085804;27;46387;-68
2022/10/08 05:29:59;;;;;;;;;8.33;5.33;;;;;13.75;100.00;101933.47;5071167;27;47497;-68
2022/10/08 05:32:24;;;;;;;;;4.67;4.00;;;;;13.69;100.00;101922.22;5088056;27;45322;-68
2022/10/08 05:34:49;;;;;;;;;6.33;3.33;;;;;13.67;100.00;101926.97;5072802;27;45782;-69
2022/10/08 05:37:15;;;;;;;;;9.00;6.00;;;;;13.68;100.00;101932.28;5084781;27;46679;-68
2022/10/08 05:39:40;;;;;;;;;3.00;3.00;;;;;13.68;100.00;101934.16;5069634;27;45373;-68
2022/10/08 05:42:05;;;;;;;;;5.67;4.00;;;;;13.67;100.00;101941.47;5082149;27;45420;-68
2022/10/08 05:44:31;;;;;;;;;5.67;3.67;;;;;13.67;100.00;101937.88;5070635;27;45179;-67
2022/10/08 05:46:56;;;;;;;;;6.33;4.00;;;;;13.62;100.00;101941.03;5082009;27;45324;-67
2022/10/08 05:49:22;;;;;;;;;6.67;5.00;;;;;13.59;100.00;101949.50;5067136;27;45267;-67
2022/10/08 05:51:48;;;;;;;;;4.67;3.67;;;;;13.62;100.00;101941.03;5081791;27;45329;-67
2022/10/08 05:54:15;;;;;;;;;6.00;5.00;;;;;13.62;100.00;101955.56;5066113;27;45308;-68
2022/10/08 05:56:40;;;;;;;;;5.67;4.00;;;;;13.59;100.00;101950.38;5072130;27;45525;-68
2022/10/08 05:59:06;;;;;;;;;6.33;4.67;;;;;13.57;100.00;101943.34;5066214;28;45226;-69
2022/10/08 06:01:32;;;;;;;;;3.33;3.33;;;;;13.54;100.00;101962.72;5080338;27;45405;-69
2022/10/08 06:04:00;;;;;;;;;5.67;3.00;;;;;13.55;100.00;101959.00;5067037;28;45598;-68
2022/10/08 06:06:26;;;;;;;;;7.67;6.00;;;;;13.54;100.00;101955.38;5080566;27;45925;-68
2022/10/08 06:08:53;;;;;;;;;9.33;6.67;;;;;13.51;100.00;101960.28;5072444;28;45378;-68
2022/10/08 06:11:19;;;;;;;;;15.33;6.33;;;;;13.51;100.00;101965.75;5086032;27;45425;-68
2022/10/08 06:13:44;;;;;;;;;6.67;6.67;;;;;13.50;100.00;101959.41;5066828;28;45523;-68
2022/10/08 06:16:10;;;;;;;;;6.00;5.33;;;;;13.58;100.00;101978.72;5082676;27;47082;-68
2022/10/08 06:18:39;;;;;;;;;5.33;5.33;;;;;13.62;100.00;101982.00;5065732;28;45400;-68
2022/10/08 06:21:13;;;;;;;;;11.33;6.33;;;;;13.64;100.00;101975.41;5080955;27;45411;-68
2022/10/08 06:23:43;;;;;;;;;8.67;8.67;;;;;13.70;100.00;101989.50;5064697;27;45296;-68
2022/10/08 06:26:09;;;;;;;;;13.33;6.00;;;;;13.70;100.00;101992.25;5089102;27;46263;-69
2022/10/08 06:28:36;;;;;;;;;7.00;7.00;;;;;13.64;100.00;101988.19;5083329;27;45296;-68
2022/10/08 06:31:02;;;;;;;;;7.00;5.67;;;;;13.72;100.00;101990.25;5079295;27;45455;-68
2022/10/08 06:33:28;;;;;;;;;7.33;7.00;;;;;13.78;100.00;101993.28;5067173;27;45603;-68
2022/10/08 06:35:53;;;;;;;;;7.00;6.00;;;;;13.86;100.00;101998.91;5076047;27;45548;-69
2022/10/08 06:38:19;;;;;;;;;11.33;9.33;;;;;13.82;100.00;101997.44;5066409;28;45358;-69
2022/10/08 06:40:44;;;;;;;;;8.33;7.00;;;;;13.89;100.00;101995.88;5077304;27;45352;-69
2022/10/08 06:43:15;;;;;;;;;7.33;7.33;;;;;13.96;100.00;101996.19;5067708;28;45329;-68
2022/10/08 06:45:42;;;;;;;;;14.33;7.00;;;;;14.03;100.00;102003.69;5077288;27;45636;-68
2022/10/08 06:48:08;;;;;;;;;12.67;9.33;;;;;13.94;100.00;102004.56;5073205;28;46257;-69
2022/10/08 06:50:35;;;;;;;;;10.67;9.00;;;;;13.91;100.00;102004.81;5080405;27;45478;-69
2022/10/08 06:53:00;;;;;;;;;6.00;6.00;;;;;14.04;100.00;102024.56;5068362;28;45563;-69
2022/10/08 06:55:26;;;;;;;;;18.00;17.00;;;;;14.12;100.00;102020.25;5076257;27;45418;-69
2022/10/08 06:57:51;;;;;;;;;13.00;11.67;;;;;14.19;100.00;102030.47;5069276;28;44921;-72
2022/10/08 07:00:17;;;;;;;;;13.67;9.00;;;;;14.24;100.00;102028.22;5074418;27;46641;-70
2022/10/08 07:02:43;;;;;;;;;10.00;9.00;;;;;14.17;100.00;102032.47;5067535;28;45500;-70
2022/10/08 07:05:08;;;;;;;;;9.67;7.67;;;;;14.26;100.00;102030.78;5069438;27;46425;-70
2022/10/08 07:07:34;;;;;;;;;7.67;6.00;;;;;14.24;100.00;102033.69;5079608;28;45394;-70
2022/10/08 07:09:59;;;;;;;;;8.00;6.67;;;;;14.35;100.00;102046.34;5079403;27;45546;-70
2022/10/08 07:12:24;;;;;;;;;6.00;6.00;;;;;14.37;100.00;102038.88;5074655;27;45439;-70
2022/10/08 07:14:49;;;;;;;;;8.67;5.67;;;;;14.36;100.00;102046.22;5069238;27;46349;-70
2022/10/08 07:17:15;;;;;;;;;9.67;6.67;;;;;14.45;100.00;102047.28;5070329;27;45447;-70
2022/10/08 07:19:40;;;;;;;;;6.33;5.67;;;;;14.60;100.00;102056.78;5068151;27;45459;-71
2022/10/08 07:22:06;;;;;;;;;12.33;10.67;;;;;14.64;100.00;102055.47;5075163;27;45329;-70
2022/10/08 07:24:31;;;;;;;;;9.33;8.67;;;;;14.91;100.00;102054.75;5074098;27;45609;-69
2022/10/08 07:26:57;;;;;;;;;4.00;3.00;;;;;15.06;100.00;102060.66;5075841;28;45366;-70
2022/10/08 07:29:23;;;;;;;;;6.00;6.00;;;;;15.27;100.00;102060.50;5075064;27;45280;-70
2022/10/08 07:31:49;;;;;;;;;7.33;7.00;;;;;15.29;100.00;102073.00;5077320;27;45270;-69
2022/10/08 07:34:14;;;;;;;;;7.00;5.00;;;;;15.62;100.00;102059.84;5063013;27;45335;-69
2022/10/08 07:36:40;;;;;;;;;7.33;7.33;;;;;15.77;100.00;102067.44;5082148;27;45371;-70
2022/10/08 07:39:10;;;;;;;;;8.00;8.00;;;;;16.03;100.00;102078.56;5068614;28;45245;-70
2022/10/08 07:41:35;;;;;;;;;7.00;5.33;;;;;16.31;100.00;102066.59;5089455;27;45759;-70
2022/10/08 07:44:02;;;;;;;;;9.33;6.00;;;;;16.58;100.00;102086.78;5084334;27;48073;-70
2022/10/08 07:46:29;;;;;;;;;6.00;6.00;;;;;16.83;100.00;102086.03;5081840;27;45426;-70
2022/10/08 07:48:57;;;;;;;;;7.33;7.00;;;;;16.75;100.00;102094.19;5068291;28;45312;-70
2022/10/08 07:51:24;;;;;;;;;14.00;10.00;;;;;16.88;100.00;102097.41;5077512;27;45262;-69
2022/10/08 07:53:49;;;;;;;;;4.00;2.33;;;;;16.98;100.00;102100.94;5064946;28;46429;-70
2022/10/08 07:56:16;;;;;;;;;10.00;8.33;;;;;17.13;100.00;102110.34;5076646;27;45306;-70
2022/10/08 07:58:42;;;;;;;;;11.67;9.33;;;;;17.02;100.00;102101.50;5067420;28;45326;-70
2022/10/08 08:01:11;;;;;;;;;10.00;9.00;;;;;17.25;100.00;102101.84;5077282;27;45369;-69
2022/10/08 08:03:37;;;;;;;;;8.67;5.67;;;;;17.21;100.00;102105.94;5065933;28;46283;-70
2022/10/08 08:06:05;;;;;;;;;9.00;8.00;;;;;17.43;100.00;102108.19;5074776;27;45425;-70
2022/10/08 08:08:33;;;;;;;;;7.33;5.33;;;;;17.54;100.00;102107.91;5068753;28;45283;-71
2022/10/08 08:11:00;;;;;;;;;5.00;4.00;;;;;17.71;100.00;102114.44;5080527;27;45390;-69
2022/10/08 08:13:27;;;;;;;;;15.33;14.00;;;;;17.96;100.00;102107.19;5074609;28;45455;-70
2022/10/08 08:16:14;;;;;;;;;5.00;5.00;;;;;17.93;100.00;102107.50;5079983;27;45390;-70
2022/10/08 08:18:42;;;;;;;;;7.00;7.00;;;;;17.85;100.00;102111.06;5066802;28;45249;-70
2022/10/08 08:21:19;;;;;;;;;8.00;5.00;;;;;17.81;100.00;102120.69;5083238;27;45610;-70
2022/10/08 08:23:47;;;;;;;;;12.00;7.33;;;;;18.04;100.00;102123.75;5065249;28;46388;-71
2022/10/08 08:26:21;;;;;;;;;11.33;8.00;;;;;18.32;100.00;102127.13;5083985;27;45251;-70
2022/10/08 08:28:55;;;;;;;;;14.00;9.00;;;;;18.43;100.00;102133.19;5072971;28;45279;-72
2022/10/08 08:31:24;;;;;;;;;10.00;9.33;;;;;18.56;100.00;102144.63;5087671;27;45439;-70
2022/10/08 08:33:52;;;;;;;;;11.67;8.67;;;;;18.65;100.00;102148.28;5075527;27;47265;-70
2022/10/08 08:36:19;;;;;;;;;9.00;7.67;;;;;19.16;100.00;102149.94;5083191;27;45476;-70
2022/10/08 08:38:45;;;;;;;;;10.67;9.00;;;;;19.40;100.00;102155.47;5078800;28;45397;-70
2022/10/08 08:41:40;;;;;;;;;10.67;8.67;;;;;19.38;99.48;102156.66;5081928;27;45460;-70
2022/10/08 08:44:17;;;;;;;;;16.00;13.00;;;;;19.34;98.97;102161.69;5046992;28;46003;-70
2022/10/08 08:47:20;;;;;;;;;10.00;5.00;;;;;19.91;97.02;102158.03;5085876;27;45403;-70
2022/10/08 08:50:20;;;;;;;;;8.67;8.67;;;;;19.87;95.46;102164.97;5071311;27;45327;-70
2022/10/08 08:52:46;;;;;;;;;7.67;6.67;;;;;20.08;93.45;102157.84;5068857;28;45320;-70
2022/10/08 08:55:17;;;;;;;;;14.33;10.33;;;;;20.09;92.11;102156.78;5077033;27;46030;-70
2022/10/08 08:57:51;;;;;;;;;12.00;8.00;;;;;20.06;92.24;102168.19;5067419;28;45357;-70
2022/10/08 09:00:21;;;;;;;;;9.67;8.00;;;;;19.99;91.71;102166.31;5079572;27;45504;-70
2022/10/08 09:02:56;;;;;;;;;9.00;8.67;;;;;20.24;92.50;102161.59;5085519;27;45424;-70
2022/10/08 09:05:24;;;;;;;;;6.00;5.00;;;;;19.99;90.11;102158.03;5080211;27;46802;-70
2022/10/08 09:07:57;;;;;;;;;12.67;10.33;;;;;20.15;90.05;102164.38;5080203;27;45383;-70
2022/10/08 09:10:33;;;;;;;;;13.33;8.00;;;;;20.08;89.91;102166.13;5076886;27;45323;-69
2022/10/08 09:12:59;;;;;;;;;8.67;7.00;;;;;20.42;87.82;102156.72;5080112;27;45469;-70
2022/10/08 09:15:33;;;;;;;;;5.67;4.33;;;;;20.39;85.57;102168.97;5081389;27;47404;-70
2022/10/08 09:18:01;;;;;;;;;7.00;5.00;;;;;20.34;83.72;102170.53;5072800;28;45329;-71
2022/10/08 09:20:28;;;;;;;;;10.33;6.67;;;;;20.31;83.22;102170.88;5082951;27;45396;-71
2022/10/08 09:22:54;;;;;;;;;7.33;6.00;;;;;20.62;82.01;102173.72;5073057;27;45160;-71
2022/10/08 09:25:23;;;;;;;;;5.00;4.67;;;;;20.69;80.57;102181.09;5074323;27;46327;-71
2022/10/08 09:27:57;;;;;;;;;5.67;5.00;;;;;20.71;80.60;102179.03;5075407;27;45457;-71
2022/10/08 09:30:25;;;;;;;;;6.00;4.00;;;;;20.94;80.30;102179.94;5074245;27;45333;-71
2022/10/08 09:32:56;;;;;;;;;7.00;5.67;;;;;20.77;79.51;102185.72;5077637;27;45341;-70
2022/10/08 09:35:22;;;;;;;;;5.00;2.00;;;;;20.58;79.25;102184.25;5078712;27;45354;-70
2022/10/08 09:37:50;;;;;;;;;3.33;2.00;;;;;20.47;78.75;102179.97;5077497;28;45303;-70
2022/10/08 09:40:20;;;;;;;;;5.33;5.33;;;;;20.29;81.26;102192.28;5070991;27;45442;-70
2022/10/08 09:43:08;;;;;;;;;7.67;5.00;;;;;20.39;79.39;102190.19;5074906;28;45401;-70
2022/10/08 09:45:47;;;;;;;;;5.00;2.67;;;;;20.55;79.06;102184.59;5079881;27;45287;-70
2022/10/08 09:48:29;;;;;;;;;4.67;3.67;;;;;20.14;81.23;102194.91;5072027;28;45419;-70
2022/10/08 09:51:04;;;;;;;;;4.67;3.33;;;;;19.84;82.48;102188.22;5073882;27;45388;-71
2022/10/08 09:53:32;;;;;;;;;5.33;4.00;;;;;19.71;81.31;102201.69;5070864;28;45402;-72
2022/10/08 09:56:04;;;;;;;;;3.67;3.67;;;;;19.63;82.44;102194.28;5078879;27;45364;-70
2022/10/08 09:58:32;;;;;;;;;5.33;5.33;;;;;19.34;83.98;102191.13;5071421;28;45295;-70
2022/10/08 10:01:02;;;;;;;;;5.00;2.00;;;;;19.63;80.23;102198.94;5082987;27;45433;-70
2022/10/08 10:03:28;;;;;;;;;4.33;3.33;;;;;19.55;80.61;102197.03;5068415;27;45472;-70
2022/10/08 10:05:55;;;;;;;;;3.67;2.00;;;;;19.47;78.95;102194.25;5074639;27;45384;-69
2022/10/08 10:08:42;;;;;;;;;3.67;2.33;;;;;19.65;76.96;102192.19;5080850;27;45686;-75
2022/10/08 10:11:13;;;;;;;;;5.00;3.33;;;;;19.72;78.19;102192.38;5078554;27;45390;-74
2022/10/08 10:13:40;;;;;;;;;3.67;2.67;;;;;19.92;76.40;102199.25;5074785;27;45517;-74
2022/10/08 10:16:13;;;;;;;;;4.00;1.67;;;;;20.04;75.35;102206.13;5077946;28;46571;-74
2022/10/08 10:18:55;;;;;;;;;3.00;3.00;;;;;19.73;73.69;102205.09;5076891;28;45565;-77
2022/10/08 10:21:36;;;;;;;;;3.33;3.33;;;;;19.55;73.73;102196.16;5070056;27;45478;-76
2022/10/08 10:24:12;;;;;;;;;8.00;7.00;;;;;19.42;74.30;102203.03;5076277;28;45172;-76
2022/10/08 10:26:41;;;;;;;;;2.67;2.67;;;;;19.57;74.91;102213.41;5065862;28;46093;-77
2022/10/08 10:29:21;;;;;;;;;5.00;3.33;;;;;19.55;74.35;102208.06;5072112;28;45481;-76
2022/10/08 10:32:13;;;;;;;;;5.33;2.00;;;;;19.25;74.28;102181.97;5070048;28;45388;-76
2022/10/08 10:34:44;;;;;;;;;4.00;4.00;;;;;19.53;73.94;102203.72;5070237;28;45508;-77
2022/10/08 10:37:15;;;;;;;;;1.33;0.33;;;;;19.38;73.04;102201.63;5063262;28;45509;-76
2022/10/08 10:39:48;;;;;;;;;3.00;2.33;;;;;19.29;74.89;102207.28;5080432;28;45356;-77
2022/10/08 10:42:17;;;;;;;;;5.67;4.33;;;;;19.33;76.13;102204.03;5065315;28;45459;-77
2022/10/08 10:44:52;;;;;;;;;2.00;2.00;;;;;19.35;74.54;102206.63;5077622;28;45407;-76
2022/10/08 10:47:21;;;;;;;;;5.67;3.00;;;;;19.15;73.97;102200.56;5063594;28;46232;-75
2022/10/08 10:49:47;;;;;;;;;4.00;2.33;;;;;19.37;72.91;102216.44;5081794;28;45325;-77
2022/10/08 10:52:37;;;;;;;;;3.67;2.33;;;;;19.41;72.59;102211.47;5071563;28;45407;-79
2022/10/08 10:55:17;;;;;;;;;4.00;2.67;;;;;19.33;72.21;102219.72;5077392;28;45330;-80
2022/10/08 10:58:05;;;;;;;;;2.33;2.33;;;;;19.32;71.89;102213.34;5073396;28;46170;-80
2022/10/08 11:00:39;;;;;;;;;6.67;4.00;;;;;19.21;71.25;102199.91;5072326;28;45357;-79
2022/10/08 11:03:04;;;;;;;;;7.67;4.33;;;;;19.36;72.53;102219.34;5070447;28;45386;-80
2022/10/08 11:05:32;;;;;;;;;2.00;1.33;;;;;19.15;73.33;102202.44;5074422;27;45485;-79
2022/10/08 11:08:33;;;;;;;;;3.33;3.33;;;;;19.25;71.07;102208.69;5079084;28;45539;-78
2022/10/08 11:11:06;;;;;;;;;3.33;2.00;;;;;19.23;69.84;102217.09;5066825;28;45305;-78
2022/10/08 11:13:57;;;;;;;;;3.00;1.67;;;;;19.15;70.14;102207.94;5075783;28;45454;-77
2022/10/08 11:16:47;;;;;;;;;6.00;3.67;;;;;19.23;70.44;102205.22;5084609;28;45521;-77
2022/10/08 11:19:45;;;;;;;;;5.67;4.00;;;;;19.38;70.66;102200.75;5077650;28;45828;-78
2022/10/08 11:22:37;;;;;;;;;3.00;2.00;;;;;19.60;69.93;102211.16;5096335;27;45266;-78
2022/10/08 11:25:02;;;;;;;;;2.33;2.00;;;;;19.47;69.23;102207.19;5077328;28;45476;-78
2022/10/08 11:28:10;;;;;;;;;4.00;2.33;;;;;19.41;70.13;102206.81;5080349;28;45401;-78
2022/10/08 11:31:05;;;;;;;;;5.67;4.00;;;;;19.36;69.93;102208.34;5057708;28;46701;-78
2022/10/08 11:33:32;;;;;;;;;1.67;1.67;;;;;19.45;66.10;102204.56;5079947;28;45958;-79